sensor_id;sensor_type;location;lat;lon;timestamp;P1;durP1;ratioP1;P2;durP2;ratioP2
61640;SDS011;62201;49.966;8.342;2023-05-15T00:00:34;4.50;;;1.60;;
61640;SDS011;62201;49.966;8.342;2023-05-15T00:03:01;4.07;;;2.70;;
61640;SDS011;62201;49.966;8.342;2023-05-15T00:05:27;2.85;;;2.00;;
61640;SDS011;62201;49.966;8.342;2023-05-15T00:07:52;4.38;;;2.00;;
61640;SDS011;62201;49.966;8.342;2023-05-15T00:10:17;2.78;;;1.90;;
61640;SDS011;62201;49.966;8.342;2023-05-15T00:12:43;4.85;;;2.00;;
61640;SDS011;62201;49.966;8.342;2023-05-15T00:15:08;3.83;;;2.00;;
61640;SDS011;62201;49.966;8.342;2023-05-15T00:17:34;8.18;;;2.10;;
61640;SDS011;62201;49.966;8.342;2023-05-15T00:19:59;3.05;;;1.90;;
61640;SDS011;62201;49.966;8.342;2023-05-15T00:22:25;4.82;;;2.00;;
61640;SDS011;62201;49.966;8.342;2023-05-15T00:24:51;2.40;;;2.20;;
61640;SDS011;62201;49.966;8.342;2023-05-15T00:27:16;3.63;;;2.30;;
61640;SDS011;62201;49.966;8.342;2023-05-15T00:29:42;10.27;;;2.10;;
61640;SDS011;62201;49.966;8.342;2023-05-15T00:32:07;2.65;;;2.17;;
61640;SDS011;62201;49.966;8.342;2023-05-15T00:34:33;3.40;;;1.80;;
61640;SDS011;62201;49.966;8.342;2023-05-15T00:36:58;3.85;;;2.00;;
61640;SDS011;62201;49.966;8.342;2023-05-15T00:39:24;3.22;;;1.95;;
61640;SDS011;62201;49.966;8.342;2023-05-15T00:41:50;3.20;;;1.70;;
61640;SDS011;62201;49.966;8.342;2023-05-15T00:44:17;1.83;;;1.70;;
61640;SDS011;62201;49.966;8.342;2023-05-15T00:46:44;2.65;;;1.77;;
61640;SDS011;62201;49.966;8.342;2023-05-15T00:49:10;2.35;;;1.65;;
61640;SDS011;62201;49.966;8.342;2023-05-15T00:51:39;3.70;;;2.67;;
61640;SDS011;62201;49.966;8.342;2023-05-15T00:54:06;3.03;;;1.50;;
61640;SDS011;62201;49.966;8.342;2023-05-15T00:56:33;3.33;;;1.70;;
61640;SDS011;62201;49.966;8.342;2023-05-15T00:58:59;2.03;;;1.60;;
61640;SDS011;62201;49.966;8.342;2023-05-15T01:01:27;3.67;;;1.75;;
61640;SDS011;62201;49.966;8.342;2023-05-15T01:03:57;1.88;;;1.65;;
61640;SDS011;62201;49.966;8.342;2023-05-15T01:06:22;4.78;;;1.80;;
61640;SDS011;62201;49.966;8.342;2023-05-15T01:08:48;2.95;;;2.13;;
61640;SDS011;62201;49.966;8.342;2023-05-15T01:11:14;6.63;;;2.08;;
61640;SDS011;62201;49.966;8.342;2023-05-15T01:13:41;2.45;;;2.00;;
61640;SDS011;62201;49.966;8.342;2023-05-15T01:16:08;3.78;;;1.98;;
61640;SDS011;62201;49.966;8.342;2023-05-15T01:18:34;3.92;;;2.40;;
61640;SDS011;62201;49.966;8.342;2023-05-15T01:26:45;3.90;;;2.10;;
61640;SDS011;62201;49.966;8.342;2023-05-15T01:32:11;6.13;;;2.50;;
61640;SDS011;62201;49.966;8.342;2023-05-15T01:34:43;3.47;;;2.10;;
61640;SDS011;62201;49.966;8.342;2023-05-15T01:37:13;3.50;;;2.13;;
61640;SDS011;62201;49.966;8.342;2023-05-15T01:39:46;4.07;;;2.30;;
61640;SDS011;62201;49.966;8.342;2023-05-15T01:42:17;3.40;;;2.50;;
61640;SDS011;62201;49.966;8.342;2023-05-15T01:44:50;7.50;;;3.25;;
61640;SDS011;62201;49.966;8.342;2023-05-15T01:47:19;5.93;;;2.70;;
61640;SDS011;62201;49.966;8.342;2023-05-15T01:49:48;3.13;;;2.53;;
61640;SDS011;62201;49.966;8.342;2023-05-15T01:52:23;4.10;;;2.90;;
61640;SDS011;62201;49.966;8.342;2023-05-15T01:54:53;6.55;;;2.90;;
61640;SDS011;62201;49.966;8.342;2023-05-15T01:57:19;4.45;;;2.83;;
61640;SDS011;62201;49.966;8.342;2023-05-15T01:59:46;3.25;;;2.20;;
61640;SDS011;62201;49.966;8.342;2023-05-15T02:02:12;2.75;;;2.55;;
61640;SDS011;62201;49.966;8.342;2023-05-15T02:04:38;6.43;;;2.42;;
61640;SDS011;62201;49.966;8.342;2023-05-15T02:07:05;6.43;;;2.72;;
61640;SDS011;62201;49.966;8.342;2023-05-15T02:09:31;7.85;;;2.83;;
61640;SDS011;62201;49.966;8.342;2023-05-15T02:11:58;6.43;;;3.17;;
61640;SDS011;62201;49.966;8.342;2023-05-15T02:14:25;5.85;;;2.90;;
61640;SDS011;62201;49.966;8.342;2023-05-15T02:16:52;7.10;;;3.28;;
61640;SDS011;62201;49.966;8.342;2023-05-15T02:19:18;8.25;;;3.03;;
61640;SDS011;62201;49.966;8.342;2023-05-15T02:21:43;4.32;;;3.30;;
61640;SDS011;62201;49.966;8.342;2023-05-15T02:24:09;4.75;;;3.50;;
61640;SDS011;62201;49.966;8.342;2023-05-15T02:29:18;4.72;;;3.58;;
61640;SDS011;62201;49.966;8.342;2023-05-15T02:31:51;5.93;;;3.72;;
61640;SDS011;62201;49.966;8.342;2023-05-15T02:34:44;6.82;;;3.30;;
61640;SDS011;62201;49.966;8.342;2023-05-15T02:37:25;7.50;;;3.38;;
61640;SDS011;62201;49.966;8.342;2023-05-15T02:39:52;7.18;;;3.17;;
61640;SDS011;62201;49.966;8.342;2023-05-15T02:42:22;4.70;;;3.00;;
61640;SDS011;62201;49.966;8.342;2023-05-15T02:44:48;6.07;;;3.08;;
61640;SDS011;62201;49.966;8.342;2023-05-15T02:47:15;4.63;;;3.20;;
61640;SDS011;62201;49.966;8.342;2023-05-15T02:49:41;3.50;;;3.17;;
61640;SDS011;62201;49.966;8.342;2023-05-15T02:52:07;3.33;;;3.03;;
61640;SDS011;62201;49.966;8.342;2023-05-15T02:54:32;8.63;;;3.40;;
61640;SDS011;62201;49.966;8.342;2023-05-15T02:56:58;6.47;;;3.35;;
61640;SDS011;62201;49.966;8.342;2023-05-15T02:59:23;5.30;;;3.55;;
61640;SDS011;62201;49.966;8.342;2023-05-15T03:01:48;7.05;;;3.38;;
61640;SDS011;62201;49.966;8.342;2023-05-15T03:04:14;7.28;;;3.58;;
61640;SDS011;62201;49.966;8.342;2023-05-15T03:06:40;11.27;;;3.55;;
61640;SDS011;62201;49.966;8.342;2023-05-15T03:09:05;5.15;;;3.90;;
61640;SDS011;62201;49.966;8.342;2023-05-15T03:11:31;5.00;;;3.90;;
61640;SDS011;62201;49.966;8.342;2023-05-15T03:13:56;4.55;;;3.90;;
61640;SDS011;62201;49.966;8.342;2023-05-15T03:16:24;7.13;;;4.07;;
61640;SDS011;62201;49.966;8.342;2023-05-15T03:18:49;6.88;;;4.00;;
61640;SDS011;62201;49.966;8.342;2023-05-15T03:21:15;7.88;;;3.97;;
61640;SDS011;62201;49.966;8.342;2023-05-15T03:23:41;6.60;;;4.00;;
61640;SDS011;62201;49.966;8.342;2023-05-15T03:26:07;6.78;;;3.70;;
61640;SDS011;62201;49.966;8.342;2023-05-15T03:28:32;7.20;;;4.10;;
61640;SDS011;62201;49.966;8.342;2023-05-15T03:30:57;6.40;;;3.95;;
61640;SDS011;62201;49.966;8.342;2023-05-15T03:33:23;7.43;;;3.88;;
61640;SDS011;62201;49.966;8.342;2023-05-15T03:35:48;5.43;;;4.13;;
61640;SDS011;62201;49.966;8.342;2023-05-15T03:38:15;7.90;;;4.10;;
61640;SDS011;62201;49.966;8.342;2023-05-15T03:40:40;8.05;;;4.20;;
61640;SDS011;62201;49.966;8.342;2023-05-15T03:43:05;6.47;;;4.40;;
61640;SDS011;62201;49.966;8.342;2023-05-15T03:45:34;9.63;;;4.22;;
61640;SDS011;62201;49.966;8.342;2023-05-15T03:48:00;6.40;;;3.90;;
61640;SDS011;62201;49.966;8.342;2023-05-15T03:50:25;7.45;;;4.35;;
61640;SDS011;62201;49.966;8.342;2023-05-15T03:52:50;5.35;;;4.07;;
61640;SDS011;62201;49.966;8.342;2023-05-15T03:55:16;7.75;;;3.70;;
61640;SDS011;62201;49.966;8.342;2023-05-15T03:57:42;4.55;;;4.00;;
61640;SDS011;62201;49.966;8.342;2023-05-15T04:00:07;11.82;;;4.15;;
61640;SDS011;62201;49.966;8.342;2023-05-15T04:02:34;5.53;;;4.00;;
61640;SDS011;62201;49.966;8.342;2023-05-15T04:05:01;5.88;;;4.38;;
61640;SDS011;62201;49.966;8.342;2023-05-15T04:07:31;4.35;;;3.92;;
61640;SDS011;62201;49.966;8.342;2023-05-15T04:09:57;5.18;;;4.30;;
61640;SDS011;62201;49.966;8.342;2023-05-15T04:12:26;10.45;;;5.30;;
61640;SDS011;62201;49.966;8.342;2023-05-15T04:14:57;8.77;;;5.68;;
61640;SDS011;62201;49.966;8.342;2023-05-15T04:17:36;5.57;;;4.38;;
61640;SDS011;62201;49.966;8.342;2023-05-15T04:20:02;5.00;;;4.57;;
61640;SDS011;62201;49.966;8.342;2023-05-15T04:22:29;4.82;;;4.43;;
61640;SDS011;62201;49.966;8.342;2023-05-15T04:24:54;5.50;;;4.70;;
61640;SDS011;62201;49.966;8.342;2023-05-15T04:27:19;5.68;;;4.75;;
61640;SDS011;62201;49.966;8.342;2023-05-15T04:29:45;6.07;;;4.93;;
61640;SDS011;62201;49.966;8.342;2023-05-15T04:32:10;6.43;;;4.93;;
61640;SDS011;62201;49.966;8.342;2023-05-15T04:34:36;5.68;;;5.18;;
61640;SDS011;62201;49.966;8.342;2023-05-15T04:37:02;5.50;;;4.90;;
61640;SDS011;62201;49.966;8.342;2023-05-15T04:39:28;6.95;;;5.00;;
61640;SDS011;62201;49.966;8.342;2023-05-15T04:41:53;5.85;;;4.95;;
61640;SDS011;62201;49.966;8.342;2023-05-15T04:44:19;6.65;;;4.95;;
61640;SDS011;62201;49.966;8.342;2023-05-15T04:46:44;7.95;;;4.45;;
61640;SDS011;62201;49.966;8.342;2023-05-15T04:49:09;6.28;;;4.20;;
61640;SDS011;62201;49.966;8.342;2023-05-15T04:51:35;10.15;;;3.80;;
61640;SDS011;62201;49.966;8.342;2023-05-15T04:54:00;5.65;;;3.67;;
61640;SDS011;62201;49.966;8.342;2023-05-15T04:56:26;4.47;;;4.05;;
61640;SDS011;62201;49.966;8.342;2023-05-15T04:58:51;7.43;;;4.18;;
61640;SDS011;62201;49.966;8.342;2023-05-15T05:01:16;5.80;;;3.75;;
61640;SDS011;62201;49.966;8.342;2023-05-15T05:03:42;6.05;;;3.90;;
61640;SDS011;62201;49.966;8.342;2023-05-15T05:06:07;5.53;;;3.88;;
61640;SDS011;62201;49.966;8.342;2023-05-15T05:08:33;5.18;;;3.78;;
61640;SDS011;62201;49.966;8.342;2023-05-15T05:10:58;5.72;;;3.90;;
61640;SDS011;62201;49.966;8.342;2023-05-15T05:13:23;4.25;;;3.85;;
61640;SDS011;62201;49.966;8.342;2023-05-15T05:15:49;7.97;;;3.35;;
61640;SDS011;62201;49.966;8.342;2023-05-15T05:18:14;5.70;;;3.50;;
61640;SDS011;62201;49.966;8.342;2023-05-15T05:20:39;4.55;;;3.47;;
61640;SDS011;62201;49.966;8.342;2023-05-15T05:23:05;8.23;;;3.60;;
61640;SDS011;62201;49.966;8.342;2023-05-15T05:25:30;7.47;;;3.67;;
61640;SDS011;62201;49.966;8.342;2023-05-15T05:27:56;4.18;;;3.38;;
61640;SDS011;62201;49.966;8.342;2023-05-15T05:30:21;5.07;;;3.15;;
61640;SDS011;62201;49.966;8.342;2023-05-15T05:32:47;6.78;;;3.28;;
61640;SDS011;62201;49.966;8.342;2023-05-15T05:35:12;6.20;;;3.00;;
61640;SDS011;62201;49.966;8.342;2023-05-15T05:37:37;4.55;;;3.15;;
61640;SDS011;62201;49.966;8.342;2023-05-15T05:40:03;4.93;;;3.05;;
61640;SDS011;62201;49.966;8.342;2023-05-15T05:42:30;6.72;;;2.95;;
61640;SDS011;62201;49.966;8.342;2023-05-15T05:44:56;5.90;;;3.22;;
61640;SDS011;62201;49.966;8.342;2023-05-15T05:47:21;5.22;;;2.70;;
61640;SDS011;62201;49.966;8.342;2023-05-15T05:49:46;3.13;;;2.70;;
61640;SDS011;62201;49.966;8.342;2023-05-15T05:52:12;4.07;;;2.65;;
61640;SDS011;62201;49.966;8.342;2023-05-15T05:54:37;4.68;;;3.05;;
61640;SDS011;62201;49.966;8.342;2023-05-15T05:57:02;4.25;;;3.20;;
61640;SDS011;62201;49.966;8.342;2023-05-15T05:59:28;5.90;;;3.20;;
61640;SDS011;62201;49.966;8.342;2023-05-15T06:01:54;5.32;;;3.15;;
61640;SDS011;62201;49.966;8.342;2023-05-15T06:04:19;3.65;;;3.20;;
61640;SDS011;62201;49.966;8.342;2023-05-15T06:06:45;3.40;;;3.00;;
61640;SDS011;62201;49.966;8.342;2023-05-15T06:09:10;4.75;;;2.83;;
61640;SDS011;62201;49.966;8.342;2023-05-15T06:11:35;4.25;;;3.13;;
61640;SDS011;62201;49.966;8.342;2023-05-15T06:14:01;4.22;;;3.17;;
61640;SDS011;62201;49.966;8.342;2023-05-15T06:16:26;5.90;;;3.42;;
61640;SDS011;62201;49.966;8.342;2023-05-15T06:18:52;6.75;;;2.70;;
61640;SDS011;62201;49.966;8.342;2023-05-15T06:21:17;3.58;;;3.00;;
61640;SDS011;62201;49.966;8.342;2023-05-15T06:23:43;6.43;;;3.15;;
61640;SDS011;62201;49.966;8.342;2023-05-15T06:26:08;6.35;;;3.08;;
61640;SDS011;62201;49.966;8.342;2023-05-15T06:28:33;7.68;;;3.40;;
61640;SDS011;62201;49.966;8.342;2023-05-15T06:30:59;5.72;;;3.10;;
61640;SDS011;62201;49.966;8.342;2023-05-15T06:33:24;6.25;;;3.10;;
61640;SDS011;62201;49.966;8.342;2023-05-15T06:35:50;15.02;;;4.22;;
61640;SDS011;62201;49.966;8.342;2023-05-15T06:38:15;10.55;;;3.50;;
61640;SDS011;62201;49.966;8.342;2023-05-15T06:40:40;11.48;;;3.33;;
61640;SDS011;62201;49.966;8.342;2023-05-15T06:43:06;7.85;;;3.40;;
61640;SDS011;62201;49.966;8.342;2023-05-15T06:45:31;5.47;;;3.80;;
61640;SDS011;62201;49.966;8.342;2023-05-15T06:47:56;4.88;;;3.55;;
61640;SDS011;62201;49.966;8.342;2023-05-15T06:50:22;7.45;;;4.13;;
61640;SDS011;62201;49.966;8.342;2023-05-15T06:52:47;7.50;;;4.65;;
61640;SDS011;62201;49.966;8.342;2023-05-15T06:55:12;5.43;;;4.45;;
61640;SDS011;62201;49.966;8.342;2023-05-15T06:57:38;9.15;;;4.93;;
61640;SDS011;62201;49.966;8.342;2023-05-15T07:00:03;9.15;;;4.70;;
61640;SDS011;62201;49.966;8.342;2023-05-15T07:02:29;8.77;;;4.90;;
61640;SDS011;62201;49.966;8.342;2023-05-15T07:04:55;10.10;;;5.75;;
61640;SDS011;62201;49.966;8.342;2023-05-15T07:07:20;7.88;;;5.55;;
61640;SDS011;62201;49.966;8.342;2023-05-15T07:09:45;7.43;;;5.85;;
61640;SDS011;62201;49.966;8.342;2023-05-15T07:12:12;6.43;;;5.38;;
61640;SDS011;62201;49.966;8.342;2023-05-15T07:14:39;7.53;;;5.43;;
61640;SDS011;62201;49.966;8.342;2023-05-15T07:17:04;9.00;;;4.45;;
61640;SDS011;62201;49.966;8.342;2023-05-15T07:19:29;10.43;;;5.47;;
61640;SDS011;62201;49.966;8.342;2023-05-15T07:21:55;7.75;;;6.40;;
61640;SDS011;62201;49.966;8.342;2023-05-15T07:24:20;7.35;;;6.10;;
61640;SDS011;62201;49.966;8.342;2023-05-15T07:26:45;9.82;;;6.28;;
61640;SDS011;62201;49.966;8.342;2023-05-15T07:29:11;10.10;;;6.75;;
61640;SDS011;62201;49.966;8.342;2023-05-15T07:31:36;14.48;;;7.07;;
61640;SDS011;62201;49.966;8.342;2023-05-15T07:34:03;10.65;;;6.22;;
61640;SDS011;62201;49.966;8.342;2023-05-15T07:36:29;6.25;;;5.40;;
61640;SDS011;62201;49.966;8.342;2023-05-15T07:38:54;9.57;;;6.22;;
61640;SDS011;62201;49.966;8.342;2023-05-15T07:41:20;13.02;;;8.43;;
61640;SDS011;62201;49.966;8.342;2023-05-15T07:43:45;10.82;;;8.93;;
61640;SDS011;62201;49.966;8.342;2023-05-15T07:46:11;12.77;;;9.68;;
61640;SDS011;62201;49.966;8.342;2023-05-15T07:48:36;16.40;;;9.15;;
61640;SDS011;62201;49.966;8.342;2023-05-15T07:51:02;16.98;;;9.18;;
61640;SDS011;62201;49.966;8.342;2023-05-15T07:53:27;12.30;;;7.43;;
61640;SDS011;62201;49.966;8.342;2023-05-15T07:55:52;13.77;;;9.27;;
61640;SDS011;62201;49.966;8.342;2023-05-15T07:58:18;16.58;;;10.23;;
61640;SDS011;62201;49.966;8.342;2023-05-15T08:00:43;14.65;;;11.77;;
61640;SDS011;62201;49.966;8.342;2023-05-15T08:03:09;17.45;;;12.02;;
61640;SDS011;62201;49.966;8.342;2023-05-15T08:05:35;16.80;;;11.55;;
61640;SDS011;62201;49.966;8.342;2023-05-15T08:08:00;16.50;;;12.23;;
61640;SDS011;62201;49.966;8.342;2023-05-15T08:10:25;15.10;;;12.25;;
61640;SDS011;62201;49.966;8.342;2023-05-15T08:12:51;21.08;;;13.27;;
61640;SDS011;62201;49.966;8.342;2023-05-15T08:15:16;21.98;;;14.10;;
61640;SDS011;62201;49.966;8.342;2023-05-15T08:17:42;19.55;;;14.02;;
61640;SDS011;62201;49.966;8.342;2023-05-15T08:20:08;21.33;;;13.38;;
61640;SDS011;62201;49.966;8.342;2023-05-15T08:22:34;20.38;;;14.30;;
61640;SDS011;62201;49.966;8.342;2023-05-15T08:24:59;18.38;;;12.00;;
61640;SDS011;62201;49.966;8.342;2023-05-15T08:27:25;19.92;;;13.68;;
61640;SDS011;62201;49.966;8.342;2023-05-15T08:29:51;18.30;;;13.10;;
61640;SDS011;62201;49.966;8.342;2023-05-15T08:32:19;17.83;;;12.88;;
61640;SDS011;62201;49.966;8.342;2023-05-15T08:34:44;16.90;;;12.65;;
61640;SDS011;62201;49.966;8.342;2023-05-15T08:37:10;17.25;;;13.52;;
61640;SDS011;62201;49.966;8.342;2023-05-15T08:39:35;18.27;;;14.40;;
61640;SDS011;62201;49.966;8.342;2023-05-15T08:42:07;19.17;;;13.32;;
61640;SDS011;62201;49.966;8.342;2023-05-15T08:44:39;20.27;;;14.95;;
61640;SDS011;62201;49.966;8.342;2023-05-15T08:47:05;19.77;;;14.27;;
61640;SDS011;62201;49.966;8.342;2023-05-15T08:52:22;20.58;;;14.30;;
61640;SDS011;62201;49.966;8.342;2023-05-15T08:54:49;19.23;;;13.30;;
61640;SDS011;62201;49.966;8.342;2023-05-15T08:57:15;19.40;;;12.32;;
61640;SDS011;62201;49.966;8.342;2023-05-15T08:59:41;21.42;;;14.70;;
61640;SDS011;62201;49.966;8.342;2023-05-15T09:02:07;17.67;;;13.25;;
61640;SDS011;62201;49.966;8.342;2023-05-15T09:04:33;21.77;;;13.48;;
61640;SDS011;62201;49.966;8.342;2023-05-15T09:06:59;17.27;;;12.90;;
61640;SDS011;62201;49.966;8.342;2023-05-15T09:09:26;23.15;;;11.23;;
61640;SDS011;62201;49.966;8.342;2023-05-15T09:11:53;18.88;;;11.38;;
61640;SDS011;62201;49.966;8.342;2023-05-15T09:14:19;17.15;;;11.80;;
61640;SDS011;62201;49.966;8.342;2023-05-15T09:16:45;18.20;;;12.30;;
61640;SDS011;62201;49.966;8.342;2023-05-15T09:19:14;15.77;;;11.43;;
61640;SDS011;62201;49.966;8.342;2023-05-15T09:21:42;17.65;;;11.55;;
61640;SDS011;62201;49.966;8.342;2023-05-15T09:24:15;18.73;;;12.93;;
61640;SDS011;62201;49.966;8.342;2023-05-15T09:26:43;19.52;;;12.48;;
61640;SDS011;62201;49.966;8.342;2023-05-15T09:29:10;18.92;;;13.70;;
61640;SDS011;62201;49.966;8.342;2023-05-15T09:31:36;21.48;;;14.07;;
61640;SDS011;62201;49.966;8.342;2023-05-15T09:34:01;20.23;;;12.57;;
61640;SDS011;62201;49.966;8.342;2023-05-15T09:36:29;22.52;;;14.13;;
61640;SDS011;62201;49.966;8.342;2023-05-15T09:38:58;19.58;;;12.50;;
61640;SDS011;62201;49.966;8.342;2023-05-15T09:41:25;17.92;;;12.60;;
61640;SDS011;62201;49.966;8.342;2023-05-15T09:43:51;18.00;;;13.32;;
61640;SDS011;62201;49.966;8.342;2023-05-15T09:46:18;20.73;;;12.13;;
61640;SDS011;62201;49.966;8.342;2023-05-15T09:48:43;21.05;;;13.10;;
61640;SDS011;62201;49.966;8.342;2023-05-15T09:51:15;15.20;;;11.00;;
61640;SDS011;62201;49.966;8.342;2023-05-15T09:53:46;18.90;;;11.73;;
61640;SDS011;62201;49.966;8.342;2023-05-15T09:56:13;21.30;;;11.63;;
61640;SDS011;62201;49.966;8.342;2023-05-15T09:58:50;19.25;;;11.50;;
61640;SDS011;62201;49.966;8.342;2023-05-15T10:01:25;20.60;;;10.85;;
61640;SDS011;62201;49.966;8.342;2023-05-15T10:04:01;13.93;;;10.38;;
61640;SDS011;62201;49.966;8.342;2023-05-15T10:06:39;14.80;;;10.88;;
61640;SDS011;62201;49.966;8.342;2023-05-15T10:09:09;22.48;;;11.93;;
61640;SDS011;62201;49.966;8.342;2023-05-15T10:11:36;22.75;;;11.80;;
61640;SDS011;62201;49.966;8.342;2023-05-15T10:14:04;15.90;;;11.48;;
61640;SDS011;62201;49.966;8.342;2023-05-15T10:16:30;17.35;;;11.32;;
61640;SDS011;62201;49.966;8.342;2023-05-15T10:18:59;17.90;;;11.52;;
61640;SDS011;62201;49.966;8.342;2023-05-15T10:21:32;17.38;;;11.48;;
61640;SDS011;62201;49.966;8.342;2023-05-15T10:23:59;16.40;;;12.18;;
61640;SDS011;62201;49.966;8.342;2023-05-15T10:26:32;17.08;;;11.93;;
61640;SDS011;62201;49.966;8.342;2023-05-15T10:29:03;20.90;;;12.70;;
61640;SDS011;62201;49.966;8.342;2023-05-15T10:31:31;17.80;;;12.32;;
61640;SDS011;62201;49.966;8.342;2023-05-15T10:33:58;18.98;;;12.45;;
61640;SDS011;62201;49.966;8.342;2023-05-15T10:36:25;18.00;;;11.43;;
61640;SDS011;62201;49.966;8.342;2023-05-15T10:38:51;15.95;;;9.73;;
61640;SDS011;62201;49.966;8.342;2023-05-15T10:41:17;15.02;;;9.48;;
61640;SDS011;62201;49.966;8.342;2023-05-15T10:43:45;13.82;;;9.80;;
61640;SDS011;62201;49.966;8.342;2023-05-15T10:46:11;14.73;;;10.10;;
61640;SDS011;62201;49.966;8.342;2023-05-15T10:48:37;14.73;;;9.73;;
61640;SDS011;62201;49.966;8.342;2023-05-15T10:51:03;14.82;;;10.10;;
61640;SDS011;62201;49.966;8.342;2023-05-15T10:53:30;14.65;;;9.23;;
61640;SDS011;62201;49.966;8.342;2023-05-15T10:55:56;11.68;;;8.50;;
61640;SDS011;62201;49.966;8.342;2023-05-15T10:58:22;13.05;;;9.15;;
61640;SDS011;62201;49.966;8.342;2023-05-15T11:00:48;14.40;;;10.30;;
61640;SDS011;62201;49.966;8.342;2023-05-15T11:03:13;16.08;;;9.43;;
61640;SDS011;62201;49.966;8.342;2023-05-15T11:08:35;15.00;;;11.73;;
61640;SDS011;62201;49.966;8.342;2023-05-15T11:11:04;16.02;;;10.63;;
61640;SDS011;62201;49.966;8.342;2023-05-15T11:24:29;14.07;;;11.20;;
61640;SDS011;62201;49.966;8.342;2023-05-15T11:27:01;14.13;;;10.50;;
61640;SDS011;62201;49.966;8.342;2023-05-15T11:29:28;14.23;;;10.80;;
61640;SDS011;62201;49.966;8.342;2023-05-15T11:31:54;13.57;;;11.02;;
61640;SDS011;62201;49.966;8.342;2023-05-15T11:34:32;12.73;;;10.18;;
61640;SDS011;62201;49.966;8.342;2023-05-15T11:36:58;16.77;;;9.35;;
61640;SDS011;62201;49.966;8.342;2023-05-15T11:39:25;13.13;;;8.20;;
61640;SDS011;62201;49.966;8.342;2023-05-15T11:41:51;8.23;;;7.07;;
61640;SDS011;62201;49.966;8.342;2023-05-15T11:44:20;13.02;;;7.47;;
61640;SDS011;62201;49.966;8.342;2023-05-15T11:46:49;9.75;;;6.60;;
61640;SDS011;62201;49.966;8.342;2023-05-15T11:49:17;10.55;;;6.20;;
61640;SDS011;62201;49.966;8.342;2023-05-15T11:51:46;8.23;;;6.07;;
61640;SDS011;62201;49.966;8.342;2023-05-15T11:54:12;6.38;;;5.35;;
61640;SDS011;62201;49.966;8.342;2023-05-15T11:56:42;7.97;;;6.95;;
61640;SDS011;62201;49.966;8.342;2023-05-15T11:59:08;15.95;;;7.45;;
61640;SDS011;62201;49.966;8.342;2023-05-15T12:01:40;10.25;;;7.55;;
61640;SDS011;62201;49.966;8.342;2023-05-15T12:04:14;9.30;;;6.65;;
61640;SDS011;62201;49.966;8.342;2023-05-15T12:06:40;6.60;;;5.25;;
61640;SDS011;62201;49.966;8.342;2023-05-15T12:09:11;8.18;;;5.75;;
61640;SDS011;62201;49.966;8.342;2023-05-15T12:11:38;8.23;;;6.03;;
61640;SDS011;62201;49.966;8.342;2023-05-15T12:14:04;9.13;;;6.03;;
61640;SDS011;62201;49.966;8.342;2023-05-15T12:16:29;13.68;;;6.45;;
61640;SDS011;62201;49.966;8.342;2023-05-15T12:18:55;6.90;;;6.25;;
61640;SDS011;62201;49.966;8.342;2023-05-15T12:21:21;9.68;;;6.05;;
61640;SDS011;62201;49.966;8.342;2023-05-15T12:23:50;10.98;;;6.18;;
61640;SDS011;62201;49.966;8.342;2023-05-15T12:26:17;12.23;;;7.72;;
61640;SDS011;62201;49.966;8.342;2023-05-15T12:28:44;11.02;;;8.02;;
61640;SDS011;62201;49.966;8.342;2023-05-15T12:31:10;10.80;;;7.47;;
61640;SDS011;62201;49.966;8.342;2023-05-15T12:33:36;8.88;;;7.05;;
61640;SDS011;62201;49.966;8.342;2023-05-15T12:36:02;9.27;;;6.85;;
61640;SDS011;62201;49.966;8.342;2023-05-15T12:38:28;6.55;;;5.47;;
61640;SDS011;62201;49.966;8.342;2023-05-15T12:40:54;7.90;;;4.82;;
61640;SDS011;62201;49.966;8.342;2023-05-15T12:43:23;6.88;;;4.47;;
61640;SDS011;62201;49.966;8.342;2023-05-15T12:45:53;6.97;;;5.40;;
61640;SDS011;62201;49.966;8.342;2023-05-15T12:48:19;13.77;;;6.25;;
61640;SDS011;62201;49.966;8.342;2023-05-15T12:50:45;8.50;;;5.90;;
61640;SDS011;62201;49.966;8.342;2023-05-15T12:53:12;9.80;;;5.53;;
61640;SDS011;62201;49.966;8.342;2023-05-15T12:55:40;8.15;;;5.07;;
61640;SDS011;62201;49.966;8.342;2023-05-15T12:58:10;10.93;;;5.63;;
61640;SDS011;62201;49.966;8.342;2023-05-15T13:00:37;6.47;;;5.15;;
61640;SDS011;62201;49.966;8.342;2023-05-15T13:03:06;7.72;;;5.70;;
61640;SDS011;62201;49.966;8.342;2023-05-15T13:05:34;10.60;;;5.25;;
61640;SDS011;62201;49.966;8.342;2023-05-15T13:08:03;7.07;;;5.15;;
61640;SDS011;62201;49.966;8.342;2023-05-15T13:10:31;6.55;;;4.50;;
61640;SDS011;62201;49.966;8.342;2023-05-15T13:12:58;6.43;;;4.60;;
61640;SDS011;62201;49.966;8.342;2023-05-15T13:15:33;7.75;;;5.30;;
61640;SDS011;62201;49.966;8.342;2023-05-15T13:18:07;9.15;;;6.90;;
61640;SDS011;62201;49.966;8.342;2023-05-15T13:20:40;10.82;;;6.90;;
61640;SDS011;62201;49.966;8.342;2023-05-15T13:23:05;11.38;;;6.75;;
61640;SDS011;62201;49.966;8.342;2023-05-15T13:25:32;9.40;;;6.50;;
61640;SDS011;62201;49.966;8.342;2023-05-15T13:27:58;8.38;;;6.25;;
61640;SDS011;62201;49.966;8.342;2023-05-15T13:30:27;9.88;;;6.15;;
61640;SDS011;62201;49.966;8.342;2023-05-15T13:32:52;8.05;;;5.80;;
61640;SDS011;62201;49.966;8.342;2023-05-15T13:35:18;8.60;;;6.45;;
61640;SDS011;62201;49.966;8.342;2023-05-15T13:37:43;7.63;;;6.38;;
61640;SDS011;62201;49.966;8.342;2023-05-15T13:40:10;10.93;;;6.72;;
61640;SDS011;62201;49.966;8.342;2023-05-15T13:42:36;11.40;;;6.07;;
61640;SDS011;62201;49.966;8.342;2023-05-15T13:45:09;12.80;;;6.78;;
61640;SDS011;62201;49.966;8.342;2023-05-15T13:47:36;7.97;;;5.72;;
61640;SDS011;62201;49.966;8.342;2023-05-15T13:50:05;9.35;;;5.00;;
61640;SDS011;62201;49.966;8.342;2023-05-15T13:52:31;6.07;;;5.13;;
61640;SDS011;62201;49.966;8.342;2023-05-15T13:54:57;10.27;;;4.50;;
61640;SDS011;62201;49.966;8.342;2023-05-15T13:57:22;7.45;;;3.50;;
61640;SDS011;62201;49.966;8.342;2023-05-15T13:59:48;8.05;;;3.30;;
61640;SDS011;62201;49.966;8.342;2023-05-15T14:02:13;6.28;;;3.65;;
61640;SDS011;62201;49.966;8.342;2023-05-15T14:04:39;5.55;;;3.30;;
61640;SDS011;62201;49.966;8.342;2023-05-15T14:07:04;17.23;;;3.33;;
61640;SDS011;62201;49.966;8.342;2023-05-15T14:09:30;4.85;;;2.78;;
61640;SDS011;62201;49.966;8.342;2023-05-15T14:11:55;6.22;;;3.25;;
61640;SDS011;62201;49.966;8.342;2023-05-15T14:14:20;6.07;;;3.60;;
61640;SDS011;62201;49.966;8.342;2023-05-15T14:16:46;13.50;;;4.55;;
61640;SDS011;62201;49.966;8.342;2023-05-15T14:19:11;8.82;;;3.30;;
61640;SDS011;62201;49.966;8.342;2023-05-15T14:21:37;7.13;;;4.50;;
61640;SDS011;62201;49.966;8.342;2023-05-15T14:24:04;7.10;;;4.32;;
61640;SDS011;62201;49.966;8.342;2023-05-15T14:26:30;8.70;;;4.00;;
61640;SDS011;62201;49.966;8.342;2023-05-15T14:28:55;9.40;;;4.60;;
61640;SDS011;62201;49.966;8.342;2023-05-15T14:31:20;8.88;;;4.88;;
61640;SDS011;62201;49.966;8.342;2023-05-15T14:33:46;5.93;;;4.72;;
61640;SDS011;62201;49.966;8.342;2023-05-15T14:36:12;10.40;;;5.18;;
61640;SDS011;62201;49.966;8.342;2023-05-15T14:38:38;5.95;;;4.82;;
61640;SDS011;62201;49.966;8.342;2023-05-15T14:41:03;6.10;;;5.00;;
61640;SDS011;62201;49.966;8.342;2023-05-15T14:43:29;7.70;;;4.53;;
61640;SDS011;62201;49.966;8.342;2023-05-15T14:45:54;8.07;;;4.32;;
61640;SDS011;62201;49.966;8.342;2023-05-15T14:48:19;4.13;;;3.30;;
61640;SDS011;62201;49.966;8.342;2023-05-15T14:50:45;5.22;;;2.80;;
61640;SDS011;62201;49.966;8.342;2023-05-15T14:53:10;9.63;;;3.28;;
61640;SDS011;62201;49.966;8.342;2023-05-15T14:55:36;12.18;;;3.95;;
61640;SDS011;62201;49.966;8.342;2023-05-15T14:58:01;7.20;;;3.83;;
61640;SDS011;62201;49.966;8.342;2023-05-15T15:00:26;5.05;;;3.88;;
61640;SDS011;62201;49.966;8.342;2023-05-15T15:02:52;6.72;;;4.45;;
61640;SDS011;62201;49.966;8.342;2023-05-15T15:05:18;7.65;;;4.63;;